sensor_id;sensor_type;location;lat;lon;timestamp;pressure;altitude;pressure_sealevel;temperature;humidity
13934;BME280;7039;52.168;9.866;2023-04-19T00:12:44;101810.56;;;10.81;56.63
13934;BME280;7039;52.168;9.866;2023-04-19T00:18:00;101808.44;;;10.65;58.24
13934;BME280;7039;52.168;9.866;2023-04-19T00:20:27;101802.56;;;10.57;57.26
13934;BME280;7039;52.168;9.866;2023-04-19T00:23:15;101803.41;;;10.58;57.35
13934;BME280;7039;52.168;9.866;2023-04-19T00:28:19;101803.78;;;10.45;54.39
13934;BME280;7039;52.168;9.866;2023-04-19T00:30:46;101812.47;;;10.76;54.42
13934;BME280;7039;52.168;9.866;2023-04-19T00:33:14;101816.03;;;10.73;53.07
13934;BME280;7039;52.168;9.866;2023-04-19T00:35:44;101808.50;;;10.62;53.69
13934;BME280;7039;52.168;9.866;2023-04-19T00:38:11;101815.78;;;10.51;52.75
13934;BME280;7039;52.168;9.866;2023-04-19T00:41:05;101806.03;;;10.58;52.47
13934;BME280;7039;52.168;9.866;2023-04-19T00:43:52;101814.25;;;10.74;52.93
13934;BME280;7039;52.168;9.866;2023-04-19T00:46:22;101817.78;;;10.73;53.12
13934;BME280;7039;52.168;9.866;2023-04-19T00:51:19;101809.69;;;10.52;52.84
13934;BME280;7039;52.168;9.866;2023-04-19T00:53:47;101811.50;;;10.49;53.28
13934;BME280;7039;52.168;9.866;2023-04-19T00:56:14;101815.16;;;10.43;52.71
13934;BME280;7039;52.168;9.866;2023-04-19T00:58:50;101816.00;;;10.43;52.83
13934;BME280;7039;52.168;9.866;2023-04-19T01:01:19;101812.72;;;10.35;52.19
13934;BME280;7039;52.168;9.866;2023-04-19T01:03:47;101823.91;;;10.40;52.92
13934;BME280;7039;52.168;9.866;2023-04-19T01:06:14;101814.19;;;10.13;54.57
13934;BME280;7039;52.168;9.866;2023-04-19T01:08:42;101812.25;;;10.19;53.25
13934;BME280;7039;52.168;9.866;2023-04-19T01:11:09;101816.88;;;10.10;53.43
13934;BME280;7039;52.168;9.866;2023-04-19T01:13:36;101818.53;;;10.12;53.97
13934;BME280;7039;52.168;9.866;2023-04-19T01:16:06;101824.91;;;10.02;54.66
13934;BME280;7039;52.168;9.866;2023-04-19T01:18:33;101820.47;;;9.71;55.35
13934;BME280;7039;52.168;9.866;2023-04-19T01:21:03;101817.44;;;9.54;54.60
13934;BME280;7039;52.168;9.866;2023-04-19T01:56:32;101822.56;;;8.79;58.42
13934;BME280;7039;52.168;9.866;2023-04-19T04:26:25;101815.25;;;6.98;65.39
13934;BME280;7039;52.168;9.866;2023-04-19T04:28:54;101812.69;;;6.95;65.49
13934;BME280;7039;52.168;9.866;2023-04-19T04:31:21;101810.97;;;6.94;65.43
13934;BME280;7039;52.168;9.866;2023-04-19T04:33:47;101813.56;;;6.95;65.65
13934;BME280;7039;52.168;9.866;2023-04-19T04:36:14;101814.31;;;7.03;65.66
13934;BME280;7039;52.168;9.866;2023-04-19T04:38:40;101813.34;;;7.10;65.56
13934;BME280;7039;52.168;9.866;2023-04-19T04:41:07;101825.44;;;7.10;65.65
13934;BME280;7039;52.168;9.866;2023-04-19T04:43:35;101821.22;;;7.04;65.83
13934;BME280;7039;52.168;9.866;2023-04-19T04:46:02;101820.31;;;7.05;65.46
13934;BME280;7039;52.168;9.866;2023-04-19T04:48:28;101821.94;;;7.16;65.38
13934;BME280;7039;52.168;9.866;2023-04-19T04:50:56;101821.09;;;7.12;65.39
13934;BME280;7039;52.168;9.866;2023-04-19T04:53:24;101822.69;;;7.22;65.35
13934;BME280;7039;52.168;9.866;2023-04-19T04:55:51;101820.19;;;7.18;65.76
13934;BME280;7039;52.168;9.866;2023-04-19T04:58:17;101821.88;;;7.17;65.48
13934;BME280;7039;52.168;9.866;2023-04-19T05:00:45;101821.09;;;7.14;65.73
13934;BME280;7039;52.168;9.866;2023-04-19T05:03:13;101821.81;;;7.22;65.49
13934;BME280;7039;52.168;9.866;2023-04-19T05:05:39;101817.59;;;7.16;65.26
13934;BME280;7039;52.168;9.866;2023-04-19T05:08:06;101822.66;;;7.25;65.38
13934;BME280;7039;52.168;9.866;2023-04-19T05:10:33;101820.19;;;7.16;65.64
13934;BME280;7039;52.168;9.866;2023-04-19T05:13:00;101830.31;;;7.35;65.34
13934;BME280;7039;52.168;9.866;2023-04-19T05:15:27;101830.22;;;7.39;65.17
13934;BME280;7039;52.168;9.866;2023-04-19T05:17:54;101820.81;;;7.34;65.58
13934;BME280;7039;52.168;9.866;2023-04-19T05:20:21;101829.31;;;7.43;65.18
13934;BME280;7039;52.168;9.866;2023-04-19T05:22:47;101816.34;;;7.40;65.31
13934;BME280;7039;52.168;9.866;2023-04-19T05:25:14;101823.19;;;7.47;65.33
13934;BME280;7039;52.168;9.866;2023-04-19T05:27:40;101824.03;;;7.49;65.41
13934;BME280;7039;52.168;9.866;2023-04-19T05:30:07;101823.06;;;7.53;65.26
13934;BME280;7039;52.168;9.866;2023-04-19T05:32:33;101822.31;;;7.47;65.30
13934;BME280;7039;52.168;9.866;2023-04-19T05:35:01;101825.78;;;7.47;65.35
13934;BME280;7039;52.168;9.866;2023-04-19T05:37:28;101834.28;;;7.57;65.33
13934;BME280;7039;52.168;9.866;2023-04-19T05:39:54;101835.06;;;7.62;65.43
13934;BME280;7039;52.168;9.866;2023-04-19T05:42:21;101818.53;;;7.68;65.17
13934;BME280;7039;52.168;9.866;2023-04-19T05:44:47;101822.59;;;7.84;64.63
13934;BME280;7039;52.168;9.866;2023-04-19T05:47:14;101820.06;;;7.81;64.74
13934;BME280;7039;52.168;9.866;2023-04-19T05:49:41;101818.41;;;7.74;64.99
13934;BME280;7039;52.168;9.866;2023-04-19T05:52:09;101807.19;;;7.73;65.04
13934;BME280;7039;52.168;9.866;2023-04-19T05:54:36;101819.97;;;7.86;64.67
13934;BME280;7039;52.168;9.866;2023-04-19T05:57:02;101814.97;;;7.75;64.83
13934;BME280;7039;52.168;9.866;2023-04-19T05:59:29;101815.47;;;7.95;64.48
13934;BME280;7039;52.168;9.866;2023-04-19T06:01:55;101803.41;;;7.91;64.29
13934;BME280;7039;52.168;9.866;2023-04-19T06:04:22;101812.28;;;7.78;64.87
13934;BME280;7039;52.168;9.866;2023-04-19T06:06:48;101811.97;;;7.97;63.99
13934;BME280;7039;52.168;9.866;2023-04-19T06:09:19;101802.66;;;7.85;64.15
13934;BME280;7039;52.168;9.866;2023-04-19T06:11:45;101817.09;;;8.01;63.82
13934;BME280;7039;52.168;9.866;2023-04-19T06:14:12;101815.06;;;8.19;63.51
13934;BME280;7039;52.168;9.866;2023-04-19T06:16:38;101827.69;;;8.39;63.43
13934;BME280;7039;52.168;9.866;2023-04-19T06:19:05;101820.75;;;8.41;63.52
13934;BME280;7039;52.168;9.866;2023-04-19T06:21:32;101823.56;;;8.72;62.06
13934;BME280;7039;52.168;9.866;2023-04-19T06:23:58;101813.25;;;8.67;63.28
13934;BME280;7039;52.168;9.866;2023-04-19T06:26:26;101816.59;;;8.74;62.89
13934;BME280;7039;52.168;9.866;2023-04-19T06:28:53;101815.13;;;8.61;62.70
13934;BME280;7039;52.168;9.866;2023-04-19T06:31:19;101819.34;;;8.68;62.27
13934;BME280;7039;52.168;9.866;2023-04-19T06:33:46;101807.97;;;8.72;62.55
13934;BME280;7039;52.168;9.866;2023-04-19T06:36:21;101802.38;;;8.50;62.81
13934;BME280;7039;52.168;9.866;2023-04-19T06:38:48;101807.25;;;8.65;62.83
13934;BME280;7039;52.168;9.866;2023-04-19T06:41:15;101807.81;;;8.80;62.23
13934;BME280;7039;52.168;9.866;2023-04-19T06:43:43;101810.44;;;8.78;62.58
13934;BME280;7039;52.168;9.866;2023-04-19T06:46:09;101805.59;;;8.61;62.43
13934;BME280;7039;52.168;9.866;2023-04-19T06:48:37;101820.44;;;8.96;61.60
13934;BME280;7039;52.168;9.866;2023-04-19T06:51:04;101814.38;;;8.97;61.50
13934;BME280;7039;52.168;9.866;2023-04-19T06:53:31;101812.19;;;9.18;61.63
13934;BME280;7039;52.168;9.866;2023-04-19T06:55:58;101811.88;;;9.32;61.68
13934;BME280;7039;52.168;9.866;2023-04-19T06:58:26;101802.66;;;9.17;61.23
13934;BME280;7039;52.168;9.866;2023-04-19T07:00:54;101800.66;;;9.28;60.50
13934;BME280;7039;52.168;9.866;2023-04-19T07:03:21;101802.59;;;9.56;60.37
13934;BME280;7039;52.168;9.866;2023-04-19T07:05:47;101795.91;;;9.46;60.72
13934;BME280;7039;52.168;9.866;2023-04-19T07:08:16;101796.16;;;9.35;60.74
13934;BME280;7039;52.168;9.866;2023-04-19T07:10:42;101798.00;;;9.31;60.17
13934;BME280;7039;52.168;9.866;2023-04-19T07:13:09;101786.47;;;9.40;60.03
13934;BME280;7039;52.168;9.866;2023-04-19T07:15:36;101783.63;;;9.51;59.91
13934;BME280;7039;52.168;9.866;2023-04-19T07:18:04;101786.31;;;9.48;60.64
13934;BME280;7039;52.168;9.866;2023-04-19T07:20:30;101786.97;;;9.56;60.31
13934;BME280;7039;52.168;9.866;2023-04-19T07:22:57;101773.97;;;9.20;59.97
13934;BME280;7039;52.168;9.866;2023-04-19T07:25:24;101777.31;;;9.25;59.48
13934;BME280;7039;52.168;9.866;2023-04-19T07:27:51;101783.97;;;9.37;60.10
13934;BME280;7039;52.168;9.866;2023-04-19T07:30:17;101777.94;;;9.35;60.40
13934;BME280;7039;52.168;9.866;2023-04-19T07:32:44;101780.78;;;9.24;59.42
13934;BME280;7039;52.168;9.866;2023-04-19T07:35:12;101780.19;;;9.49;58.54
13934;BME280;7039;52.168;9.866;2023-04-19T07:37:38;101773.06;;;9.21;59.08
13934;BME280;7039;52.168;9.866;2023-04-19T07:40:06;101776.94;;;9.40;58.58
13934;BME280;7039;52.168;9.866;2023-04-19T07:42:33;101774.06;;;9.51;58.07
13934;BME280;7039;52.168;9.866;2023-04-19T07:44:59;101778.97;;;9.64;58.42
13934;BME280;7039;52.168;9.866;2023-04-19T07:47:26;101771.66;;;9.44;58.41
13934;BME280;7039;52.168;9.866;2023-04-19T07:49:54;101768.25;;;9.76;58.64
13934;BME280;7039;52.168;9.866;2023-04-19T07:52:22;101759.53;;;9.43;58.91
13934;BME280;7039;52.168;9.866;2023-04-19T07:54:48;101764.66;;;9.80;58.29
13934;BME280;7039;52.168;9.866;2023-04-19T07:57:15;101758.13;;;9.98;58.07
13934;BME280;7039;52.168;9.866;2023-04-19T07:59:41;101754.56;;;10.00;57.75
13934;BME280;7039;52.168;9.866;2023-04-19T08:02:08;101751.50;;;9.52;58.07
13934;BME280;7039;52.168;9.866;2023-04-19T08:04:34;101751.16;;;9.66;57.26
13934;BME280;7039;52.168;9.866;2023-04-19T08:07:01;101755.81;;;9.53;57.40
13934;BME280;7039;52.168;9.866;2023-04-19T08:09:32;101752.31;;;9.54;57.09
13934;BME280;7039;52.168;9.866;2023-04-19T08:11:59;101752.47;;;9.80;56.63
13934;BME280;7039;52.168;9.866;2023-04-19T08:14:25;101748.09;;;9.82;57.10
13934;BME280;7039;52.168;9.866;2023-04-19T08:16:51;101750.66;;;9.84;56.22
13934;BME280;7039;52.168;9.866;2023-04-19T08:19:18;101746.06;;;9.61;56.63
13934;BME280;7039;52.168;9.866;2023-04-19T08:21:44;101748.94;;;9.83;56.81
13934;BME280;7039;52.168;9.866;2023-04-19T08:24:11;101748.84;;;10.19;56.33
13934;BME280;7039;52.168;9.866;2023-04-19T08:26:39;101748.94;;;10.16;56.79
13934;BME280;7039;52.168;9.866;2023-04-19T08:29:06;101741.94;;;10.18;56.11
13934;BME280;7039;52.168;9.866;2023-04-19T08:31:33;101754.84;;;10.22;54.82
13934;BME280;7039;52.168;9.866;2023-04-19T08:33:59;101734.03;;;10.19;53.16
13934;BME280;7039;52.168;9.866;2023-04-19T08:36:26;101727.81;;;10.25;53.20
13934;BME280;7039;52.168;9.866;2023-04-19T08:38:53;101723.03;;;10.10;52.03
13934;BME280;7039;52.168;9.866;2023-04-19T08:41:20;101722.16;;;10.11;53.02
13934;BME280;7039;52.168;9.866;2023-04-19T08:43:50;101730.97;;;10.38;52.50
13934;BME280;7039;52.168;9.866;2023-04-19T08:46:17;101729.22;;;10.38;53.47
13934;BME280;7039;52.168;9.866;2023-04-19T08:48:44;101728.25;;;10.41;51.69
13934;BME280;7039;52.168;9.866;2023-04-19T08:51:11;101719.03;;;10.59;52.04
13934;BME280;7039;52.168;9.866;2023-04-19T08:53:40;101720.41;;;10.71;51.35
13934;BME280;7039;52.168;9.866;2023-04-19T08:56:06;101715.91;;;10.48;50.95
13934;BME280;7039;52.168;9.866;2023-04-19T08:58:33;101720.47;;;10.69;49.65
13934;BME280;7039;52.168;9.866;2023-04-19T09:01:03;101711.22;;;10.87;51.68
13934;BME280;7039;52.168;9.866;2023-04-19T09:03:29;101713.81;;;10.87;50.14
13934;BME280;7039;52.168;9.866;2023-04-19T09:05:56;101707.66;;;10.90;50.89
13934;BME280;7039;52.168;9.866;2023-04-19T09:08:24;101714.06;;;11.34;48.96
13934;BME280;7039;52.168;9.866;2023-04-19T09:10:52;101712.75;;;11.47;49.31
13934;BME280;7039;52.168;9.866;2023-04-19T09:13:19;101705.06;;;11.68;48.83
13934;BME280;7039;52.168;9.866;2023-04-19T09:15:46;101704.16;;;11.69;49.58
13934;BME280;7039;52.168;9.866;2023-04-19T09:18:14;101701.59;;;11.67;48.67
13934;BME280;7039;52.168;9.866;2023-04-19T09:20:41;101695.31;;;11.98;48.27
13934;BME280;7039;52.168;9.866;2023-04-19T09:23:11;101686.91;;;11.90;48.65
13934;BME280;7039;52.168;9.866;2023-04-19T09:25:38;101684.81;;;11.49;49.35
13934;BME280;7039;52.168;9.866;2023-04-19T09:28:08;101682.44;;;11.92;46.75
13934;BME280;7039;52.168;9.866;2023-04-19T09:30:36;101669.19;;;11.71;47.48
13934;BME280;7039;52.168;9.866;2023-04-19T09:33:03;101664.22;;;11.40;46.91
13934;BME280;7039;52.168;9.866;2023-04-19T09:35:40;101656.09;;;11.73;46.47
13934;BME280;7039;52.168;9.866;2023-04-19T09:38:07;101660.16;;;11.57;45.45
13934;BME280;7039;52.168;9.866;2023-04-19T09:40:33;101646.09;;;11.36;46.36
13934;BME280;7039;52.168;9.866;2023-04-19T09:43:00;101649.03;;;11.52;44.98
13934;BME280;7039;52.168;9.866;2023-04-19T09:45:38;101650.84;;;11.98;44.58
13934;BME280;7039;52.168;9.866;2023-04-19T09:48:06;101648.03;;;12.04;44.34
13934;BME280;7039;52.168;9.866;2023-04-19T09:50:33;101636.03;;;11.74;45.06
13934;BME280;7039;52.168;9.866;2023-04-19T09:53:01;101630.56;;;12.05;44.60
13934;BME280;7039;52.168;9.866;2023-04-19T09:55:27;101623.47;;;12.08;44.51
13934;BME280;7039;52.168;9.866;2023-04-19T09:57:55;101630.22;;;11.90;42.50
13934;BME280;7039;52.168;9.866;2023-04-19T10:00:22;101623.84;;;12.21;42.79
13934;BME280;7039;52.168;9.866;2023-04-19T10:02:50;101619.78;;;12.36;42.70
13934;BME280;7039;52.168;9.866;2023-04-19T10:05:20;101615.25;;;12.18;42.43
13934;BME280;7039;52.168;9.866;2023-04-19T10:07:48;101617.50;;;12.49;41.55
13934;BME280;7039;52.168;9.866;2023-04-19T10:10:16;101611.81;;;12.61;41.70
13934;BME280;7039;52.168;9.866;2023-04-19T10:12:46;101613.50;;;12.18;42.52
13934;BME280;7039;52.168;9.866;2023-04-19T10:15:13;101605.91;;;12.34;43.09
13934;BME280;7039;52.168;9.866;2023-04-19T10:17:40;101607.66;;;12.56;42.20
13934;BME280;7039;52.168;9.866;2023-04-19T10:20:10;101601.75;;;13.15;41.79
13934;BME280;7039;52.168;9.866;2023-04-19T10:22:38;101596.19;;;13.43;41.22
13934;BME280;7039;52.168;9.866;2023-04-19T10:25:10;101592.00;;;13.78;40.58
13934;BME280;7039;52.168;9.866;2023-04-19T10:27:38;101588.91;;;13.69;40.99
13934;BME280;7039;52.168;9.866;2023-04-19T10:30:06;101585.97;;;13.76;39.49
13934;BME280;7039;52.168;9.866;2023-04-19T10:32:43;101576.75;;;13.68;40.38
13934;BME280;7039;52.168;9.866;2023-04-19T10:35:16;101571.00;;;13.19;41.72
13934;BME280;7039;52.168;9.866;2023-04-19T10:38:01;101559.81;;;13.15;39.23
13934;BME280;7039;52.168;9.866;2023-04-19T10:40:55;101564.50;;;13.29;41.50
13934;BME280;7039;52.168;9.866;2023-04-19T10:43:26;101551.38;;;13.68;40.67
13934;BME280;7039;52.168;9.866;2023-04-19T10:45:53;101540.75;;;13.32;39.39
13934;BME280;7039;52.168;9.866;2023-04-19T10:48:39;101540.00;;;13.49;39.33
13934;BME280;7039;52.168;9.866;2023-04-19T10:51:12;101542.16;;;13.78;39.31
13934;BME280;7039;52.168;9.866;2023-04-19T10:53:53;101539.13;;;13.88;39.03
13934;BME280;7039;52.168;9.866;2023-04-19T10:56:55;101526.41;;;14.34;38.49
13934;BME280;7039;52.168;9.866;2023-04-19T10:59:13;101532.66;;;14.68;38.56
13934;BME280;7039;52.168;9.866;2023-04-19T11:01:48;101517.16;;;14.08;38.02
13934;BME280;7039;52.168;9.866;2023-04-19T11:04:16;101506.84;;;13.48;36.49
13934;BME280;7039;52.168;9.866;2023-04-19T11:06:59;101501.63;;;13.48;36.44
13934;BME280;7039;52.168;9.866;2023-04-19T11:09:28;101487.16;;;13.77;36.45
13934;BME280;7039;52.168;9.866;2023-04-19T11:11:57;101490.06;;;13.71;36.92
13934;BME280;7039;52.168;9.866;2023-04-19T11:14:29;101488.28;;;13.90;36.78
13934;BME280;7039;52.168;9.866;2023-04-19T11:16:55;101489.47;;;14.02;36.75
13934;BME280;7039;52.168;9.866;2023-04-19T11:19:22;101474.69;;;13.82;35.71
13934;BME280;7039;52.168;9.866;2023-04-19T11:21:48;101485.78;;;14.24;36.23
13934;BME280;7039;52.168;9.866;2023-04-19T11:24:15;101473.09;;;13.97;36.24
13934;BME280;7039;52.168;9.866;2023-04-19T11:26:43;101462.34;;;13.84;36.28
13934;BME280;7039;52.168;9.866;2023-04-19T11:29:10;101471.69;;;14.26;35.67
13934;BME280;7039;52.168;9.866;2023-04-19T11:31:38;101459.03;;;14.52;34.59
13934;BME280;7039;52.168;9.866;2023-04-19T11:34:04;101457.03;;;14.57;36.04
13934;BME280;7039;52.168;9.866;2023-04-19T11:36:31;101447.88;;;13.94;35.52
13934;BME280;7039;52.168;9.866;2023-04-19T11:38:58;101445.50;;;14.07;35.78
13934;BME280;7039;52.168;9.866;2023-04-19T11:41:24;101439.34;;;14.43;36.17
13934;BME280;7039;52.168;9.866;2023-04-19T11:43:51;101443.75;;;14.43;35.27
13934;BME280;7039;52.168;9.866;2023-04-19T11:46:17;101430.63;;;14.25;35.50
13934;BME280;7039;52.168;9.866;2023-04-19T11:48:52;101451.66;;;14.93;35.51
13934;BME280;7039;52.168;9.866;2023-04-19T11:51:18;101434.00;;;15.13;34.62
13934;BME280;7039;52.168;9.866;2023-04-19T11:53:46;101434.34;;;15.38;34.40
13934;BME280;7039;52.168;9.866;2023-04-19T11:56:12;101439.63;;;15.70;34.96
13934;BME280;7039;52.168;9.866;2023-04-19T11:58:41;101435.97;;;15.41;35.32
13934;BME280;7039;52.168;9.866;2023-04-19T12:01:10;101442.81;;;15.12;35.40
13934;BME280;7039;52.168;9.866;2023-04-19T12:03:40;101436.41;;;15.49;34.71
13934;BME280;7039;52.168;9.866;2023-04-19T12:06:11;101431.91;;;15.83;34.65
13934;BME280;7039;52.168;9.866;2023-04-19T12:08:40;101435.63;;;15.47;35.99
13934;BME280;7039;52.168;9.866;2023-04-19T12:11:08;101423.34;;;15.48;35.19
13934;BME280;7039;52.168;9.866;2023-04-19T12:13:35;101416.81;;;15.71;35.45
13934;BME280;7039;52.168;9.866;2023-04-19T12:16:02;101413.38;;;16.00;34.57
13934;BME280;7039;52.168;9.866;2023-04-19T12:18:41;101411.88;;;15.33;34.78
13934;BME280;7039;52.168;9.866;2023-04-19T12:21:11;101416.28;;;15.64;34.49
13934;BME280;7039;52.168;9.866;2023-04-19T12:23:48;101402.47;;;15.60;34.09
13934;BME280;7039;52.168;9.866;2023-04-19T12:26:15;101416.66;;;15.74;34.44
13934;BME280;7039;52.168;9.866;2023-04-19T12:28:42;101412.03;;;16.23;34.12
13934;BME280;7039;52.168;9.866;2023-04-19T12:31:08;101399.63;;;15.95;34.12
13934;BME280;7039;52.168;9.866;2023-04-19T12:33:35;101389.63;;;15.70;33.50
13934;BME280;7039;52.168;9.866;2023-04-19T12:36:01;101393.50;;;16.25;33.97
13934;BME280;7039;52.168;9.866;2023-04-19T12:38:29;101398.34;;;16.47;33.77
13934;BME280;7039;52.168;9.866;2023-04-19T12:40:55;101400.09;;;16.91;33.82
13934;BME280;7039;52.168;9.866;2023-04-19T12:43:22;101386.16;;;16.89;33.43
13934;BME280;7039;52.168;9.866;2023-04-19T12:45:48;101391.63;;;16.13;32.99
13934;BME280;7039;52.168;9.866;2023-04-19T12:48:15;101390.53;;;16.45;33.32
13934;BME280;7039;52.168;9.866;2023-04-19T12:50:41;101400.09;;;16.91;33.62
13934;BME280;7039;52.168;9.866;2023-04-19T12:53:08;101392.03;;;17.21;32.36
13934;BME280;7039;52.168;9.866;2023-04-19T12:55:36;101369.34;;;17.33;32.19
13934;BME280;7039;52.168;9.866;2023-04-19T12:58:02;101386.97;;;17.18;33.37
13934;BME280;7039;52.168;9.866;2023-04-19T13:00:28;101384.06;;;16.65;33.94
13934;BME280;7039;52.168;9.866;2023-04-19T13:02:55;101389.91;;;16.56;34.78
13934;BME280;7039;52.168;9.866;2023-04-19T13:05:21;101382.84;;;16.12;35.14
13934;BME280;7039;52.168;9.866;2023-04-19T13:07:48;101381.09;;;16.13;35.07
13934;BME280;7039;52.168;9.866;2023-04-19T13:10:14;101371.50;;;15.50;35.55
13934;BME280;7039;52.168;9.866;2023-04-19T13:12:42;101380.06;;;15.53;35.38
13934;BME280;7039;52.168;9.866;2023-04-19T13:15:09;101376.94;;;15.62;35.45
13934;BME280;7039;52.168;9.866;2023-04-19T13:17:36;101387.41;;;16.83;34.75
13934;BME280;7039;52.168;9.866;2023-04-19T13:20:03;101365.66;;;16.80;33.31
13934;BME280;7039;52.168;9.866;2023-04-19T13:22:30;101353.41;;;16.50;33.80
13934;BME280;7039;52.168;9.866;2023-04-19T13:24:56;101351.47;;;15.79;36.22
13934;BME280;7039;52.168;9.866;2023-04-19T13:27:23;101353.75;;;16.15;36.63
13934;BME280;7039;52.168;9.866;2023-04-19T13:29:53;101345.28;;;15.48;36.92
13934;BME280;7039;52.168;9.866;2023-04-19T13:32:19;101351.41;;;15.17;36.70
13934;BME280;7039;52.168;9.866;2023-04-19T13:34:46;101360.63;;;15.88;36.38
13934;BME280;7039;52.168;9.866;2023-04-19T13:37:12;101351.88;;;15.87;37.07
13934;BME280;7039;52.168;9.866;2023-04-19T13:39:39;101350.16;;;15.56;35.94
13934;BME280;7039;52.168;9.866;2023-04-19T13:42:06;101341.75;;;15.49;36.17
13934;BME280;7039;52.168;9.866;2023-04-19T13:44:32;101338.31;;;15.79;36.08
13934;BME280;7039;52.168;9.866;2023-04-19T13:47:00;101328.94;;;16.91;35.59
13934;BME280;7039;52.168;9.866;2023-04-19T13:49:26;101348.28;;;17.73;34.18
13934;BME280;7039;52.168;9.866;2023-04-19T13:51:53;101342.41;;;17.28;34.22
13934;BME280;7039;52.168;9.866;2023-04-19T13:54:19;101338.03;;;17.68;33.63
13934;BME280;7039;52.168;9.866;2023-04-19T13:56:46;101333.81;;;18.06;33.03
13934;BME280;7039;52.168;9.866;2023-04-19T13:59:12;101312.44;;;19.10;31.39
13934;BME280;7039;52.168;9.866;2023-04-19T14:01:39;101330.59;;;20.44;31.16
13934;BME280;7039;52.168;9.866;2023-04-19T14:04:07;101317.97;;;19.55;31.65
13934;BME280;7039;52.168;9.866;2023-04-19T14:06:34;101315.34;;;18.06;33.33
13934;BME280;7039;52.168;9.866;2023-04-19T14:09:00;101315.88;;;17.44;33.99
13934;BME280;7039;52.168;9.866;2023-04-19T14:11:27;101313.03;;;16.06;35.46
13934;BME280;7039;52.168;9.866;2023-04-19T14:13:54;101310.50;;;15.59;35.94
13934;BME280;7039;52.168;9.866;2023-04-19T14:16:21;101323.00;;;15.23;36.40
13934;BME280;7039;52.168;9.866;2023-04-19T14:18:49;101310.97;;;15.51;36.66
13934;BME280;7039;52.168;9.866;2023-04-19T14:21:17;101306.00;;;15.61;36.31
13934;BME280;7039;52.168;9.866;2023-04-19T14:23:44;101316.00;;;17.42;35.06
13934;BME280;7039;52.168;9.866;2023-04-19T14:26:11;101312.00;;;17.89;33.41
13934;BME280;7039;52.168;9.866;2023-04-19T14:28:37;101315.38;;;18.68;32.87
13934;BME280;7039;52.168;9.866;2023-04-19T14:31:04;101314.59;;;19.05;33.22
13934;BME280;7039;52.168;9.866;2023-04-19T14:33:30;101313.66;;;19.89;31.88
13934;BME280;7039;52.168;9.866;2023-04-19T14:35:57;101292.81;;;19.85;31.87
13934;BME280;7039;52.168;9.866;2023-04-19T14:38:25;101302.28;;;20.90;30.45
13934;BME280;7039;52.168;9.866;2023-04-19T14:40:51;101288.78;;;20.82;30.46
13934;BME280;7039;52.168;9.866;2023-04-19T14:43:18;101270.00;;;18.38;31.28
13934;BME280;7039;52.168;9.866;2023-04-19T14:45:47;101273.97;;;16.99;34.24
13934;BME280;7039;52.168;9.866;2023-04-19T14:48:13;101282.94;;;16.25;36.00
13934;BME280;7039;52.168;9.866;2023-04-19T14:50:39;101277.88;;;15.47;36.87
13934;BME280;7039;52.168;9.866;2023-04-19T14:53:07;101279.94;;;15.42;37.07
13934;BME280;7039;52.168;9.866;2023-04-19T14:55:37;101287.13;;;15.84;37.59
13934;BME280;7039;52.168;9.866;2023-04-19T14:58:03;101285.31;;;18.45;34.50
13934;BME280;7039;52.168;9.866;2023-04-19T15:00:30;101273.53;;;18.88;33.83
13934;BME280;7039;52.168;9.866;2023-04-19T15:02:56;101284.94;;;17.60;34.81
13934;BME280;7039;52.168;9.866;2023-04-19T15:05:24;101277.13;;;16.20;35.13
13934;BME280;7039;52.168;9.866;2023-04-19T15:07:52;101280.75;;;15.58;37.54
13934;BME280;7039;52.168;9.866;2023-04-19T15:10:18;101286.78;;;15.91;36.91
13934;BME280;7039;52.168;9.866;2023-04-19T15:12:46;101284.00;;;16.51;36.35
13934;BME280;7039;52.168;9.866;2023-04-19T15:15:12;101278.13;;;17.43;34.88
13934;BME280;7039;52.168;9.866;2023-04-19T15:17:39;101272.59;;;16.65;35.70
13934;BME280;7039;52.168;9.866;2023-04-19T15:20:07;101277.03;;;17.60;35.37
13934;BME280;7039;52.168;9.866;2023-04-19T15:22:33;101279.75;;;18.87;33.80
13934;BME280;7039;52.168;9.866;2023-04-19T15:25:00;101269.72;;;19.51;32.71
13934;BME280;7039;52.168;9.866;2023-04-19T15:27:27;101281.13;;;20.56;30.91
13934;BME280;7039;52.168;9.866;2023-04-19T15:29:55;101272.91;;;20.71;30.63
13934;BME280;7039;52.168;9.866;2023-04-19T15:32:21;101258.94;;;20.01;31.42
13934;BME280;7039;52.168;9.866;2023-04-19T15:34:48;101265.56;;;18.51;33.38
13934;BME280;7039;52.168;9.866;2023-04-19T15:37:14;101260.41;;;18.11;33.44
13934;BME280;7039;52.168;9.866;2023-04-19T15:39:41;101265.50;;;17.21;34.73
13934;BME280;7039;52.168;9.866;2023-04-19T15:42:07;101262.13;;;16.92;35.40
13934;BME280;7039;52.168;9.866;2023-04-19T15:44:34;101257.94;;;16.32;36.42
13934;BME280;7039;52.168;9.866;2023-04-19T15:47:02;101263.84;;;16.50;35.94
13934;BME280;7039;52.168;9.866;2023-04-19T15:49:29;101260.59;;;18.21;34.78
13934;BME280;7039;52.168;9.866;2023-04-19T15:51:55;101260.81;;;19.76;32.89
13934;BME280;7039;52.168;9.866;2023-04-19T15:54:21;101255.56;;;20.55;31.59
13934;BME280;7039;52.168;9.866;2023-04-19T15:56:48;101265.22;;;19.65;31.57
13934;BME280;7039;52.168;9.866;2023-04-19T15:59:14;101256.25;;;18.32;32.30
13934;BME280;7039;52.168;9.866;2023-04-19T16:01:41;101263.84;;;18.50;32.37
13934;BME280;7039;52.168;9.866;2023-04-19T16:04:09;101266.53;;;18.11;32.96
13934;BME280;7039;52.168;9.866;2023-04-19T16:06:35;101267.72;;;17.15;33.97
13934;BME280;7039;52.168;9.866;2023-04-19T16:09:01;101268.75;;;17.52;33.92
13934;BME280;7039;52.168;9.866;2023-04-19T16:11:28;101267.84;;;18.81;32.29
13934;BME280;7039;52.168;9.866;2023-04-19T16:13:54;101256.13;;;19.45;32.06
13934;BME280;7039;52.168;9.866;2023-04-19T16:16:21;101272.78;;;20.16;31.52
13934;BME280;7039;52.168;9.866;2023-04-19T16:18:47;101261.22;;;20.51;30.27
13934;BME280;7039;52.168;9.866;2023-04-19T16:21:15;101259.41;;;19.95;31.34
13934;BME280;7039;52.168;9.866;2023-04-19T16:23:41;101254.13;;;18.50;31.60
13934;BME280;7039;52.168;9.866;2023-04-19T16:26:08;101240.22;;;18.72;31.26